FAEL

Ben Schoeman Airport

East London, South Africa
METAR FAEL 181500Z 06013KT CAVOK 26/21 Q1010
Observed Flight Rules
Jan-18 @ 15:00 UTC (41 minutes ago) Visual Flight Rules
Wind Visibility Clouds
60° at 13 knots 10,000+ meters
  • Clear skies
Temperatures Readings
Current 26°C / 79°F
Dewpoint 21°C / 70°F
Humidity 74%
Altimeter 29.82" Hg
Pressure 1010 hPa
Elevation 125
METAR FAEL 181500Z 06013KT CAVOK 26/21 Q1010
Observed Flight Rules
Jan-18 @ 15:00 UTC
(41 minutes ago)
VFR
Wind Visibility
60° at 13 knots 10,000+ meters
Clouds
  • Clear skies
Temperature Dewpoint
26°C / 79°F 21°C / 70°F
Humidity Altimeter Pressure
74% 29.82" Hg 1010 hPa